createdAt,value
2017-12-28T00:00:42.372Z,76.93
2017-12-28T00:03:10.677Z,77.28
2017-12-28T00:05:39.048Z,77.32
2017-12-28T00:08:07.647Z,77.47
2017-12-28T00:10:35.939Z,77.83
2017-12-28T00:13:04.269Z,77.95
2017-12-28T00:15:32.617Z,78.01
2017-12-28T00:18:00.923Z,78.11
2017-12-28T00:20:30.038Z,77.86
2017-12-28T00:22:58.412Z,77.49
2017-12-28T00:25:26.762Z,77.47
2017-12-28T00:27:55.088Z,77.99
2017-12-28T00:30:24.032Z,78.43
2017-12-28T00:32:52.346Z,78.36
2017-12-28T00:35:37.232Z,78.31
2017-12-28T00:38:06.160Z,77.92
2017-12-28T00:40:34.508Z,78.19
2017-12-28T00:43:02.813Z,77.30
2017-12-28T00:45:31.532Z,77.18
2017-12-28T00:47:59.876Z,77.82
2017-12-28T00:50:28.196Z,77.37
2017-12-28T00:52:56.545Z,77.05
2017-12-28T00:55:24.854Z,76.40
2017-12-28T00:57:53.185Z,76.66
2017-12-28T01:00:21.518Z,76.54
2017-12-28T01:02:49.857Z,77.21
2017-12-28T01:05:18.196Z,77.70
2017-12-28T01:07:47.627Z,77.90
2017-12-28T01:10:15.926Z,77.81
2017-12-28T01:12:52.370Z,78.08
2017-12-28T01:15:20.691Z,77.89
2017-12-28T01:17:48.994Z,77.89
2017-12-28T01:20:17.372Z,78.22
2017-12-28T01:22:45.748Z,78.05
2017-12-28T01:25:14.153Z,77.76
2017-12-28T01:27:42.863Z,77.81
2017-12-28T01:30:11.256Z,78.06
2017-12-28T01:32:40.541Z,78.53
2017-12-28T01:35:09.026Z,78.75
2017-12-28T01:37:37.621Z,79.31
2017-12-28T01:40:06.169Z,79.54
2017-12-28T01:42:34.664Z,79.91
2017-12-28T01:45:03.223Z,80.24
2017-12-28T01:47:31.642Z,80.05
2017-12-28T01:50:01.111Z,79.47
2017-12-28T01:52:29.518Z,78.80
2017-12-28T01:54:58.014Z,78.54
2017-12-28T01:57:26.489Z,78.71
2017-12-28T01:59:54.965Z,79.13
2017-12-28T02:02:23.422Z,79.88
2017-12-28T02:04:51.831Z,79.68
2017-12-28T02:07:20.178Z,80.04
2017-12-28T02:09:48.548Z,80.26
2017-12-28T02:12:17.275Z,79.94
2017-12-28T02:14:45.656Z,79.20
2017-12-28T02:17:14.133Z,78.75
2017-12-28T02:19:42.542Z,79.17
2017-12-28T02:22:11.774Z,79.04
2017-12-28T02:24:40.190Z,79.27
2017-12-28T02:27:08.672Z,79.51
2017-12-28T02:29:37.380Z,79.46
2017-12-28T02:32:06.486Z,80.35
2017-12-28T02:34:35.859Z,81.08
2017-12-28T02:37:04.164Z,81.34
2017-12-28T02:39:33.224Z,81.09
2017-12-28T02:42:01.640Z,80.46
2017-12-28T02:44:30.834Z,80.98
2017-12-28T02:46:59.917Z,80.15
2017-12-28T02:49:28.277Z,79.83
2017-12-28T02:51:56.592Z,80.35
2017-12-28T02:54:24.916Z,79.82
2017-12-28T02:56:53.772Z,80.39
2017-12-28T02:59:22.102Z,79.93
2017-12-28T03:01:50.406Z,79.55
2017-12-28T03:04:19.515Z,79.91
2017-12-28T03:06:48.612Z,79.43
2017-12-28T03:09:16.951Z,78.60
2017-12-28T03:11:45.331Z,77.93
2017-12-28T03:14:13.656Z,77.45
2017-12-28T03:16:42.004Z,77.49
2017-12-28T03:19:10.691Z,77.41
2017-12-28T03:21:39.009Z,77.18
2017-12-28T03:24:07.361Z,77.59
2017-12-28T03:26:36.490Z,77.68
2017-12-28T03:29:04.856Z,78.18
2017-12-28T03:31:33.610Z,78.24
2017-12-28T03:34:01.961Z,77.80
2017-12-28T03:36:30.263Z,78.04
2017-12-28T03:38:58.597Z,77.63
2017-12-28T03:41:27.117Z,77.75
2017-12-28T03:43:55.480Z,78.65
2017-12-28T03:46:23.821Z,78.16
2017-12-28T03:48:52.160Z,77.79
2017-12-28T03:51:20.499Z,77.90
2017-12-28T03:53:48.821Z,77.72
2017-12-28T03:56:17.204Z,76.34
2017-12-28T03:58:45.575Z,76.54
2017-12-28T04:01:15.683Z,76.08
2017-12-28T04:03:44.627Z,75.91
2017-12-28T04:06:13.001Z,74.94
2017-12-28T04:08:41.349Z,74.77
2017-12-28T04:11:09.705Z,74.79
2017-12-28T04:13:38.072Z,75.08
2017-12-28T04:16:06.450Z,74.74
2017-12-28T04:18:34.784Z,75.18
2017-12-28T04:21:03.904Z,74.53
2017-12-28T04:23:32.339Z,75.05
2017-12-28T04:26:02.047Z,75.14
2017-12-28T04:28:30.507Z,73.62
2017-12-28T04:30:58.890Z,74.20
2017-12-28T04:33:27.510Z,73.27
2017-12-28T04:35:56.702Z,73.45
2017-12-28T04:38:25.994Z,73.43
2017-12-28T04:40:54.479Z,73.06
2017-12-28T04:43:22.865Z,73.07
2017-12-28T04:45:52.079Z,72.98
2017-12-28T04:48:21.456Z,72.81
2017-12-28T04:50:49.834Z,72.80
2017-12-28T04:53:18.217Z,72.99
2017-12-28T04:55:46.597Z,73.26
2017-12-28T04:58:15.079Z,73.64
2017-12-28T05:00:43.549Z,73.57
2017-12-28T05:03:12.051Z,73.43
2017-12-28T05:05:40.596Z,73.63
2017-12-28T05:08:09.111Z,73.52
2017-12-28T05:10:37.831Z,75.13
2017-12-28T05:13:06.379Z,75.27
2017-12-28T05:15:34.789Z,75.05
2017-12-28T05:18:03.242Z,75.72
2017-12-28T05:20:31.826Z,75.51
2017-12-28T05:23:00.244Z,74.79
2017-12-28T05:25:28.705Z,74.65
2017-12-28T05:27:57.829Z,75.03
2017-12-28T05:30:26.278Z,74.71
2017-12-28T05:32:55.031Z,74.22
2017-12-28T05:35:23.425Z,75.00
2017-12-28T05:37:51.911Z,75.33
2017-12-28T05:40:20.594Z,74.94
2017-12-28T05:42:49.900Z,73.92
2017-12-28T05:45:18.266Z,74.63
2017-12-28T05:47:46.780Z,74.25
2017-12-28T05:50:15.348Z,74.24
2017-12-28T05:52:43.834Z,74.22
2017-12-28T05:55:13.272Z,73.65
2017-12-28T05:57:41.732Z,73.87
2017-12-28T06:00:10.141Z,73.79
2017-12-28T06:02:38.574Z,74.18
2017-12-28T06:05:06.922Z,74.72
2017-12-28T06:07:35.227Z,74.36
2017-12-28T06:10:03.577Z,74.58
2017-12-28T06:12:31.932Z,75.02
2017-12-28T06:15:00.276Z,75.73
2017-12-28T06:17:29.462Z,75.08
2017-12-28T06:19:57.767Z,74.45
2017-12-28T06:22:26.882Z,74.55
2017-12-28T06:24:55.250Z,75.27
2017-12-28T06:27:23.551Z,74.57
2017-12-28T06:29:51.896Z,75.14
2017-12-28T06:32:21.030Z,75.86
2017-12-28T06:34:49.354Z,76.33
2017-12-28T06:37:17.699Z,76.86
2017-12-28T06:39:46.341Z,75.92
2017-12-28T06:42:14.692Z,75.39
2017-12-28T06:44:42.994Z,75.25
2017-12-28T06:47:12.134Z,75.71
2017-12-28T06:49:40.465Z,76.05
2017-12-28T06:52:08.818Z,76.23
2017-12-28T06:54:37.164Z,76.56
2017-12-28T06:57:05.546Z,77.05
2017-12-28T06:59:33.892Z,76.74
2017-12-28T07:02:03.313Z,76.83
2017-12-28T07:04:32.421Z,76.29
2017-12-28T07:07:00.759Z,76.61
2017-12-28T07:09:29.843Z,76.57
2017-12-28T07:11:58.202Z,76.75
2017-12-28T07:14:26.512Z,76.41
2017-12-28T07:16:55.692Z,75.65
2017-12-28T07:19:24.037Z,74.98
2017-12-28T07:21:52.333Z,74.93
2017-12-28T07:24:20.765Z,75.32
2017-12-28T07:26:49.101Z,75.30
2017-12-28T07:29:17.430Z,76.03
2017-12-28T07:31:45.959Z,76.03
2017-12-28T07:34:14.288Z,75.13
2017-12-28T07:36:42.671Z,75.14
2017-12-28T07:39:11.005Z,74.65
2017-12-28T07:41:39.309Z,75.19
2017-12-28T07:44:08.382Z,74.96
2017-12-28T07:46:36.856Z,75.65
2017-12-28T07:49:05.201Z,75.69
2017-12-28T07:51:33.511Z,75.62
2017-12-28T07:54:01.858Z,75.60
2017-12-28T07:56:30.177Z,75.34
2017-12-28T07:58:58.483Z,75.04
2017-12-28T08:01:27.606Z,75.12
2017-12-28T08:03:55.938Z,75.17
2017-12-28T08:06:24.305Z,75.71
2017-12-28T08:08:53.672Z,75.69
2017-12-28T08:11:21.986Z,75.95
2017-12-28T08:13:50.373Z,76.88
2017-12-28T08:16:18.758Z,76.67
2017-12-28T08:18:47.151Z,76.38
2017-12-28T08:21:16.325Z,74.83
2017-12-28T08:23:44.848Z,74.49
2017-12-28T08:26:13.200Z,75.72
2017-12-28T08:28:41.770Z,74.91
2017-12-28T08:31:10.442Z,74.33
2017-12-28T08:33:39.145Z,74.35
2017-12-28T08:36:07.523Z,74.30
2017-12-28T08:38:36.108Z,74.87
2017-12-28T08:41:04.581Z,73.95
2017-12-28T08:43:33.159Z,73.04
2017-12-28T08:46:01.760Z,72.80
2017-12-28T08:48:30.135Z,73.29
2017-12-28T08:50:58.517Z,73.14
2017-12-28T08:53:27.609Z,72.72
2017-12-28T08:55:56.079Z,71.88
2017-12-28T08:58:24.573Z,72.07
2017-12-28T09:00:53.366Z,71.82
2017-12-28T09:03:21.844Z,71.90
2017-12-28T09:05:50.304Z,71.99
2017-12-28T09:08:18.819Z,71.69
2017-12-28T09:10:48.013Z,72.42
2017-12-28T09:13:16.413Z,71.04
2017-12-28T09:15:46.200Z,70.08
2017-12-28T09:18:14.671Z,70.69
2017-12-28T09:20:43.162Z,70.58
2017-12-28T09:23:11.719Z,69.70
2017-12-28T09:25:40.136Z,69.23
2017-12-28T09:28:08.600Z,69.79
2017-12-28T09:30:37.093Z,69.91
2017-12-28T09:33:05.573Z,67.93
2017-12-28T09:35:34.055Z,66.84
2017-12-28T09:38:02.664Z,66.53
2017-12-28T09:40:31.841Z,66.25
2017-12-28T09:43:00.317Z,65.35
2017-12-28T09:45:28.745Z,64.73
2017-12-28T09:47:57.077Z,65.43
2017-12-28T09:50:25.562Z,65.43
2017-12-28T09:52:53.973Z,64.36
2017-12-28T09:55:22.325Z,64.55
2017-12-28T09:57:50.733Z,65.37
2017-12-28T10:00:19.964Z,65.51
2017-12-28T10:02:48.322Z,64.61
2017-12-28T10:05:16.709Z,64.32
2017-12-28T10:07:45.147Z,63.65
2017-12-28T10:10:13.522Z,63.44
2017-12-28T10:12:42.006Z,63.18
2017-12-28T10:15:10.515Z,62.37
2017-12-28T10:17:39.703Z,62.91
2017-12-28T10:20:08.165Z,64.33
2017-12-28T10:22:36.641Z,63.42
2017-12-28T10:25:05.331Z,62.43
2017-12-28T10:27:33.821Z,60.89
2017-12-28T10:30:02.295Z,61.71
2017-12-28T10:32:30.675Z,60.83
2017-12-28T10:34:59.153Z,59.99
2017-12-28T10:37:27.547Z,61.42
2017-12-28T10:39:56.743Z,60.78
2017-12-28T10:42:25.152Z,59.83
2017-12-28T10:44:53.635Z,60.33
2017-12-28T10:47:22.181Z,60.02
2017-12-28T10:49:50.661Z,60.31
2017-12-28T10:52:19.262Z,56.88
2017-12-28T10:54:47.664Z,50.51
2017-12-28T10:57:15.977Z,47.37
2017-12-28T10:59:44.340Z,47.55
2017-12-28T11:02:12.662Z,48.83
2017-12-28T11:04:41.001Z,48.79
2017-12-28T11:07:09.421Z,48.12
2017-12-28T11:09:37.728Z,49.82
2017-12-28T11:12:06.867Z,51.20
2017-12-28T11:14:35.214Z,52.56
2017-12-28T11:17:03.562Z,54.06
2017-12-28T11:19:32.104Z,55.28
2017-12-28T11:22:00.477Z,57.84
2017-12-28T11:24:28.834Z,58.44
2017-12-28T11:26:57.231Z,58.92
2017-12-28T11:29:25.782Z,58.89
2017-12-28T11:31:54.865Z,59.88
2017-12-28T11:34:23.939Z,59.63
2017-12-28T11:36:52.309Z,59.83
2017-12-28T11:39:20.642Z,59.52
2017-12-28T11:41:49.015Z,59.38
2017-12-28T11:44:17.399Z,60.27
2017-12-28T11:46:45.731Z,60.46
2017-12-28T11:49:18.149Z,60.47
2017-12-28T11:51:46.532Z,58.49
2017-12-28T11:54:14.844Z,57.08
2017-12-28T11:56:43.207Z,56.19
2017-12-28T11:59:16.899Z,54.94
2017-12-28T12:01:50.741Z,54.36
2017-12-28T12:04:21.931Z,53.58
2017-12-28T12:06:52.929Z,53.81
2017-12-28T12:09:21.304Z,53.95
2017-12-28T12:11:49.661Z,54.02
2017-12-28T12:14:18.036Z,52.52
2017-12-28T12:16:46.348Z,52.20
2017-12-28T12:19:14.721Z,48.89
2017-12-28T12:22:10.594Z,49.50
2017-12-28T12:24:39.752Z,45.60
2017-12-28T12:27:08.109Z,41.37
2017-12-28T12:29:54.018Z,40.42
2017-12-28T12:32:22.416Z,37.79
2017-12-28T12:34:50.732Z,34.55
2017-12-28T12:37:19.443Z,34.50
2017-12-28T12:39:47.749Z,32.00
2017-12-28T12:42:16.846Z,34.27
2017-12-28T12:44:45.203Z,33.53
2017-12-28T12:47:13.508Z,33.24
2017-12-28T12:49:41.840Z,33.97
2017-12-28T12:52:10.191Z,35.88
2017-12-28T12:54:39.307Z,39.53
2017-12-28T12:57:07.659Z,40.15
2017-12-28T12:59:36.911Z,43.13
2017-12-28T13:02:05.269Z,45.27
2017-12-28T13:04:33.611Z,46.01
2017-12-28T13:07:02.001Z,48.10
2017-12-28T13:09:31.081Z,45.91
2017-12-28T13:12:03.298Z,46.05
2017-12-28T13:14:31.664Z,43.96
2017-12-28T13:16:59.986Z,40.32
2017-12-28T13:19:28.732Z,38.01
2017-12-28T13:21:57.077Z,36.18
2017-12-28T13:24:25.392Z,38.26
2017-12-28T13:26:53.761Z,39.69
2017-12-28T13:29:22.860Z,40.76
2017-12-28T13:31:51.951Z,42.99
2017-12-28T13:34:21.071Z,44.25
2017-12-28T13:36:49.408Z,47.09
2017-12-28T13:39:18.533Z,49.17
2017-12-28T13:41:46.982Z,50.68
2017-12-28T13:44:15.317Z,51.84
2017-12-28T13:46:43.698Z,52.96
2017-12-28T13:49:12.084Z,53.82
2017-12-28T13:51:40.416Z,54.44
2017-12-28T13:54:09.516Z,55.01
2017-12-28T13:56:38.615Z,55.52
2017-12-28T13:59:06.939Z,55.35
2017-12-28T14:01:36.206Z,55.47
2017-12-28T14:04:04.680Z,56.51
2017-12-28T14:06:33.061Z,56.52
2017-12-28T14:09:01.369Z,55.09
2017-12-28T14:11:29.743Z,55.22
2017-12-28T14:13:58.041Z,56.04
2017-12-28T14:16:26.346Z,56.40
2017-12-28T14:18:54.702Z,56.05
2017-12-28T14:21:23.027Z,56.27
2017-12-28T14:23:51.357Z,56.93
2017-12-28T14:26:20.087Z,56.82
2017-12-28T14:28:49.162Z,57.75
2017-12-28T14:31:17.486Z,58.26
2017-12-28T14:33:45.851Z,58.58
2017-12-28T14:36:14.178Z,59.08
2017-12-28T14:38:42.490Z,59.46
2017-12-28T14:41:11.607Z,59.53
2017-12-28T14:43:39.925Z,59.28
2017-12-28T14:46:08.258Z,59.67
2017-12-28T14:48:36.660Z,59.50
2017-12-28T14:51:04.990Z,59.21
2017-12-28T14:53:33.322Z,59.47
2017-12-28T14:56:01.667Z,59.22
2017-12-28T14:58:30.010Z,58.96
2017-12-28T15:00:58.359Z,59.26
2017-12-28T15:03:26.683Z,59.70
2017-12-28T15:05:55.751Z,59.31
2017-12-28T15:08:24.829Z,59.51
2017-12-28T15:10:53.477Z,59.86
2017-12-28T15:13:21.813Z,60.41
2017-12-28T15:15:50.142Z,60.61
2017-12-28T15:18:18.516Z,60.70
2017-12-28T15:20:46.840Z,61.26
2017-12-28T15:23:15.164Z,61.08
2017-12-28T15:25:44.270Z,60.81
2017-12-28T15:28:12.600Z,61.28
2017-12-28T15:30:40.918Z,61.69
2017-12-28T15:33:09.596Z,61.80
2017-12-28T15:35:38.966Z,61.22
2017-12-28T15:38:07.524Z,61.66
2017-12-28T15:40:35.870Z,62.13
2017-12-28T15:43:04.215Z,62.01
2017-12-28T15:45:32.539Z,61.61
2017-12-28T15:48:00.886Z,61.97
2017-12-28T15:50:30.265Z,62.99
2017-12-28T15:52:58.633Z,62.21
2017-12-28T15:55:27.570Z,63.76
2017-12-28T15:57:55.942Z,64.37
2017-12-28T16:00:25.019Z,64.41
2017-12-28T16:02:53.372Z,64.13
2017-12-28T16:05:21.676Z,63.82
2017-12-28T16:07:49.993Z,65.21
2017-12-28T16:10:18.354Z,65.28
2017-12-28T16:12:47.472Z,64.71
2017-12-28T16:15:15.775Z,64.72
2017-12-28T16:17:44.229Z,65.42
2017-12-28T16:20:12.571Z,64.93
2017-12-28T16:22:40.871Z,64.43
2017-12-28T16:25:09.249Z,63.68
2017-12-28T16:27:38.341Z,64.04
2017-12-28T16:30:07.455Z,64.09
2017-12-28T16:32:35.823Z,63.55
2017-12-28T16:35:04.955Z,63.73
2017-12-28T16:37:33.713Z,63.89
2017-12-28T16:40:03.151Z,64.79
2017-12-28T16:42:31.544Z,64.78
2017-12-28T16:44:59.887Z,64.28
2017-12-28T16:47:28.266Z,64.50
2017-12-28T16:49:56.569Z,64.11
2017-12-28T16:52:24.899Z,64.51
2017-12-28T16:54:54.044Z,64.79
2017-12-28T16:57:22.367Z,65.99
2017-12-28T16:59:50.695Z,65.39
2017-12-28T17:02:19.420Z,65.64
2017-12-28T17:04:47.745Z,65.65
2017-12-28T17:07:16.069Z,64.93
2017-12-28T17:09:44.786Z,65.01
2017-12-28T17:12:13.118Z,65.98
2017-12-28T17:14:41.470Z,66.17
2017-12-28T17:17:09.844Z,67.02
2017-12-28T17:19:38.160Z,67.19
2017-12-28T17:22:06.504Z,68.34
2017-12-28T17:24:35.174Z,69.00
2017-12-28T17:27:04.243Z,68.90
2017-12-28T17:29:32.554Z,68.81
2017-12-28T17:32:00.907Z,69.57
2017-12-28T17:34:29.206Z,69.68
2017-12-28T17:36:58.296Z,69.60
2017-12-28T17:39:27.413Z,71.60
2017-12-28T17:41:55.736Z,73.86
2017-12-28T17:44:24.121Z,75.73
2017-12-28T17:46:52.808Z,75.22
2017-12-28T17:49:21.132Z,75.29
2017-12-28T17:51:49.473Z,76.83
2017-12-28T17:54:17.854Z,76.13
2017-12-28T17:56:46.162Z,77.06
2017-12-28T17:59:15.264Z,77.29
2017-12-28T18:01:43.626Z,77.08
2017-12-28T18:04:11.997Z,77.44
2017-12-28T18:06:41.121Z,77.59
2017-12-28T18:09:09.577Z,78.18
2017-12-28T18:11:37.908Z,79.01
2017-12-28T18:14:06.273Z,78.99
2017-12-28T18:16:34.651Z,78.52
2017-12-28T18:19:02.962Z,77.98
2017-12-28T18:21:31.308Z,79.07
2017-12-28T18:23:59.667Z,78.52
2017-12-28T18:26:28.819Z,77.85
2017-12-28T18:28:57.174Z,78.13
2017-12-28T18:31:25.717Z,77.97
2017-12-28T18:33:54.801Z,78.11
2017-12-28T18:36:24.032Z,77.62
2017-12-28T18:38:52.395Z,77.50
2017-12-28T18:41:21.502Z,78.39
2017-12-28T18:43:49.849Z,78.21
2017-12-28T18:46:18.214Z,78.50
2017-12-28T18:48:46.561Z,78.69
2017-12-28T18:51:14.886Z,79.27
2017-12-28T18:53:43.569Z,79.17
2017-12-28T18:56:11.888Z,79.70
2017-12-28T18:58:40.226Z,79.50
2017-12-28T19:01:08.601Z,78.57
2017-12-28T19:03:36.935Z,78.23
2017-12-28T19:06:05.297Z,77.60
2017-12-28T19:08:33.663Z,77.33
2017-12-28T19:11:02.777Z,77.18
2017-12-28T19:13:31.126Z,77.08
2017-12-28T19:15:59.742Z,77.12
2017-12-28T19:18:28.100Z,77.46
2017-12-28T19:20:57.187Z,77.46
2017-12-28T19:23:25.544Z,77.35
2017-12-28T19:25:53.866Z,76.78
2017-12-28T19:28:22.193Z,76.63
2017-12-28T19:30:50.549Z,76.51
2017-12-28T19:33:18.870Z,77.04
2017-12-28T19:35:47.196Z,77.18
2017-12-28T19:38:15.748Z,77.18
2017-12-28T19:40:44.878Z,76.67
2017-12-28T19:43:13.217Z,76.67
2017-12-28T19:45:41.623Z,76.50
2017-12-28T19:48:09.959Z,77.14
2017-12-28T19:50:38.282Z,77.86
2017-12-28T19:53:06.645Z,77.49
2017-12-28T19:55:35.775Z,77.50
2017-12-28T19:58:04.115Z,77.29
2017-12-28T20:00:32.956Z,77.28
2017-12-28T20:03:01.275Z,77.25
2017-12-28T20:05:30.369Z,77.31
2017-12-28T20:07:58.758Z,76.47
2017-12-28T20:10:27.904Z,75.39
2017-12-28T20:12:56.269Z,75.85
2017-12-28T20:15:24.704Z,77.11
2017-12-28T20:17:53.099Z,76.70
2017-12-28T20:20:22.197Z,76.03
2017-12-28T20:22:51.004Z,76.02
2017-12-28T20:25:19.361Z,76.02
2017-12-28T20:27:48.480Z,76.20
2017-12-28T20:30:16.865Z,75.87
2017-12-28T20:32:45.210Z,77.52
2017-12-28T20:35:14.374Z,77.60
2017-12-28T20:37:42.734Z,76.97
2017-12-28T20:40:11.115Z,76.92
2017-12-28T20:42:39.458Z,76.46
2017-12-28T20:45:07.925Z,75.80
2017-12-28T20:47:36.278Z,75.90
2017-12-28T20:50:05.392Z,75.48
2017-12-28T20:52:33.746Z,76.16
2017-12-28T20:55:02.098Z,75.46
2017-12-28T20:57:30.483Z,74.54
2017-12-28T20:59:58.836Z,74.16
2017-12-28T21:02:27.202Z,74.48
2017-12-28T21:04:56.312Z,73.66
2017-12-28T21:07:25.802Z,73.81
2017-12-28T21:09:54.912Z,74.17
2017-12-28T21:12:23.232Z,74.93
2017-12-28T21:14:51.573Z,75.24
2017-12-28T21:17:19.894Z,75.26
2017-12-28T21:19:48.226Z,74.90
2017-12-28T21:22:17.322Z,75.31
2017-12-28T21:24:46.433Z,75.12
2017-12-28T21:27:14.751Z,75.27
2017-12-28T21:29:43.723Z,75.90
2017-12-28T21:32:12.100Z,75.58
2017-12-28T21:34:40.422Z,75.33
2017-12-28T21:37:08.792Z,74.58
2017-12-28T21:39:38.642Z,74.44
2017-12-28T21:42:06.973Z,74.45
2017-12-28T21:44:36.105Z,75.20
2017-12-28T21:47:05.193Z,74.30
2017-12-28T21:49:34.304Z,74.69
2017-12-28T21:52:02.736Z,73.12
2017-12-28T21:54:31.046Z,73.25
2017-12-28T21:57:00.142Z,73.89
2017-12-28T21:59:28.492Z,73.37
2017-12-28T22:01:56.838Z,74.04
2017-12-28T22:04:25.168Z,74.12
2017-12-28T22:06:53.551Z,73.41
2017-12-28T22:09:21.892Z,73.60
2017-12-28T22:11:50.223Z,73.09
2017-12-28T22:14:19.970Z,73.21
2017-12-28T22:16:48.307Z,72.75
2017-12-28T22:19:16.633Z,72.33
2017-12-28T22:21:44.977Z,72.70
2017-12-28T22:24:14.046Z,72.30
2017-12-28T22:26:42.385Z,72.49
2017-12-28T22:29:10.755Z,72.43
2017-12-28T22:31:39.109Z,72.49
2017-12-28T22:34:08.206Z,71.89
2017-12-28T22:36:36.618Z,71.82
2017-12-28T22:39:04.955Z,72.16
2017-12-28T22:41:34.095Z,72.14
2017-12-28T22:44:02.433Z,72.43
2017-12-28T22:46:30.789Z,71.93
2017-12-28T22:48:59.137Z,73.23
2017-12-28T22:51:27.500Z,71.89
2017-12-28T22:53:55.845Z,72.06
2017-12-28T22:56:25.007Z,72.99
2017-12-28T22:58:53.631Z,73.06
2017-12-28T23:01:22.755Z,72.61
2017-12-28T23:03:52.082Z,72.83
2017-12-28T23:06:20.505Z,73.12
2017-12-28T23:08:48.825Z,73.01
2017-12-28T23:11:17.149Z,72.47
2017-12-28T23:13:45.506Z,72.31
2017-12-28T23:16:13.826Z,72.86
2017-12-28T23:18:42.894Z,72.77
2017-12-28T23:21:14.497Z,72.49
2017-12-28T23:23:42.835Z,72.26
2017-12-28T23:26:11.145Z,72.06
2017-12-28T23:28:39.494Z,72.45
2017-12-28T23:31:08.597Z,72.65
2017-12-28T23:33:37.675Z,72.18
2017-12-28T23:36:06.023Z,72.31
2017-12-28T23:38:34.330Z,72.36
2017-12-28T23:41:02.648Z,72.69
2017-12-28T23:43:31.201Z,71.96
2017-12-28T23:45:59.508Z,71.60
2017-12-28T23:48:27.812Z,71.08
2017-12-28T23:50:56.191Z,71.09
2017-12-28T23:53:24.493Z,71.41
2017-12-28T23:55:52.819Z,71.59
2017-12-28T23:58:21.172Z,72.14
